SBOSBO CAI / HECA
Speedbird OnlineSpeedbird Online CAI / HECA

Cairo International Airport
09:27 25°C

Location Cairo, Egypt
Latitude: 30.12190055847168
Longitude: 31.40559959411621
Web Wikipedia
Altitude 116 Meter / 382 Feet
Distance 3,499 KM / 2,174 Miles
from London.
Time Zone UTC +2 hours (Africa/Cairo)
Codes IATA: CAI
ICAO: HECA
Currency £1 equals EGP 22.27
Runways
RunwayLength (m)Surface
05C3999Asphalt
05L3301Asphalt
05R4000Asphalt
23C3999Asphalt
23L4000Asphalt
23R3301Asphalt
Radio
TypeDescriptionFrequency
APPAPP119.05
ATISATIS122.6
GNDGND121.9
MISCVOLMET126.2
PFLTPREFLIGHT120.1
TWRTWR118.1
Volmet124.6
rdocairo radio11.3
Live ATC
METAR HECA 060700Z 36008KT CAVOK 25/18 Q1017 NOSIG
TAF TAF HECA 060501Z 0606/0712 35008KT 9999 SCT025 TEMPO 0606/0608 VRB03KT 4000 HZ
Weather As Of 06 Oct 2022 09:27
Description Clear sky
Wind 15 km/h from North (360°)
Cloud Cover 0%
Precipitation Rain: none, Snow: none
Sunrise 05:50
Sunset 17:34
Lounges First Class Lounge, Terminal 2
Ahlein Premium Lounge, Terminal 2
Pearl Lounge , Terminal 2, Mezzanine Level
Rotations During the last 90 days there were
167 flights from LHR
173 flights to LHR


© 2017-2022 Speedbird Online